Hastings, Nebraska
Current Conditions -  °F | °C
As of 2:53 PM on Saturday 20 Dec 2014 (Local Time) from KHSI Reporting Station
Clear Clear  
Wind Chill: 39°   Ceiling: Unl
Heat Index: 42°   Visibility: 9mi
Dew Point: 34°   Wind: 5mph
Humidity: 73%   Direction: 170°S
Pressure: 29.97"   Gusts: NA
Location:  40.59°N, 98.39°W
Report Text: KHSI 202053Z AUTO 17004KT 9SM CLR 06/01 A2997 RMK AO2 SLP165 T00560011 56020
Loading
Personal Weather Stations






























Interactive Weather Map New forecast layout! Learn more

10-Day Weather Forecast

Advertisements
Track Severe Weather on mobile